sensor_id;sensor_type;location;lat;lon;timestamp;temperature;humidity
33428;DHT22;19769;48.150;16.306;2023-06-22T00:01:03;23.90;99.90
33428;DHT22;19769;48.150;16.306;2023-06-22T00:03:29;23.80;99.90
33428;DHT22;19769;48.150;16.306;2023-06-22T00:05:54;23.90;99.90
33428;DHT22;19769;48.150;16.306;2023-06-22T00:08:20;23.80;99.90
33428;DHT22;19769;48.150;16.306;2023-06-22T00:10:46;23.80;99.90
33428;DHT22;19769;48.150;16.306;2023-06-22T00:13:12;23.70;99.90
33428;DHT22;19769;48.150;16.306;2023-06-22T00:15:38;23.70;99.90
33428;DHT22;19769;48.150;16.306;2023-06-22T00:18:05;23.70;99.90
33428;DHT22;19769;48.150;16.306;2023-06-22T00:20:31;23.60;99.90
33428;DHT22;19769;48.150;16.306;2023-06-22T00:22:58;23.60;99.90
33428;DHT22;19769;48.150;16.306;2023-06-22T00:25:24;23.60;99.90
33428;DHT22;19769;48.150;16.306;2023-06-22T00:27:50;23.50;99.90
33428;DHT22;19769;48.150;16.306;2023-06-22T00:30:16;23.50;99.90
33428;DHT22;19769;48.150;16.306;2023-06-22T00:32:43;23.50;99.90
33428;DHT22;19769;48.150;16.306;2023-06-22T00:35:09;23.40;99.90
33428;DHT22;19769;48.150;16.306;2023-06-22T00:37:36;23.40;99.90
33428;DHT22;19769;48.150;16.306;2023-06-22T00:40:02;23.40;99.90
33428;DHT22;19769;48.150;16.306;2023-06-22T00:42:29;23.40;99.90
33428;DHT22;19769;48.150;16.306;2023-06-22T00:44:54;23.30;99.90
33428;DHT22;19769;48.150;16.306;2023-06-22T00:47:20;23.30;99.90
33428;DHT22;19769;48.150;16.306;2023-06-22T00:49:47;23.30;99.90
33428;DHT22;19769;48.150;16.306;2023-06-22T00:52:13;23.20;99.90
33428;DHT22;19769;48.150;16.306;2023-06-22T00:54:43;23.20;99.90
33428;DHT22;19769;48.150;16.306;2023-06-22T00:57:14;23.20;99.90
33428;DHT22;19769;48.150;16.306;2023-06-22T00:59:43;23.20;99.90
33428;DHT22;19769;48.150;16.306;2023-06-22T01:02:09;23.10;99.90
33428;DHT22;19769;48.150;16.306;2023-06-22T01:04:35;23.10;99.90
33428;DHT22;19769;48.150;16.306;2023-06-22T01:09:34;23.10;99.90
33428;DHT22;19769;48.150;16.306;2023-06-22T01:12:04;23.00;99.90
33428;DHT22;19769;48.150;16.306;2023-06-22T01:17:00;22.90;99.90
33428;DHT22;19769;48.150;16.306;2023-06-22T01:21:55;22.90;99.90
33428;DHT22;19769;48.150;16.306;2023-06-22T01:24:30;22.80;99.90
33428;DHT22;19769;48.150;16.306;2023-06-22T01:29:52;22.80;99.90
33428;DHT22;19769;48.150;16.306;2023-06-22T01:32:33;22.80;99.90
33428;DHT22;19769;48.150;16.306;2023-06-22T01:35:00;22.80;99.90
33428;DHT22;19769;48.150;16.306;2023-06-22T01:37:27;22.80;99.90
33428;DHT22;19769;48.150;16.306;2023-06-22T01:39:53;22.80;99.90
33428;DHT22;19769;48.150;16.306;2023-06-22T01:42:21;22.80;99.90
33428;DHT22;19769;48.150;16.306;2023-06-22T01:44:47;22.80;99.90
33428;DHT22;19769;48.150;16.306;2023-06-22T01:47:13;22.80;99.90
33428;DHT22;19769;48.150;16.306;2023-06-22T01:49:40;22.80;99.90
33428;DHT22;19769;48.150;16.306;2023-06-22T01:52:06;22.70;99.90
33428;DHT22;19769;48.150;16.306;2023-06-22T01:54:32;22.70;99.90
33428;DHT22;19769;48.150;16.306;2023-06-22T01:56:58;22.60;99.90
33428;DHT22;19769;48.150;16.306;2023-06-22T02:01:52;22.60;99.90
33428;DHT22;19769;48.150;16.306;2023-06-22T02:04:21;22.60;99.90
33428;DHT22;19769;48.150;16.306;2023-06-22T02:06:50;22.70;99.90
33428;DHT22;19769;48.150;16.306;2023-06-22T02:09:17;22.60;99.90
33428;DHT22;19769;48.150;16.306;2023-06-22T02:11:45;22.60;99.90
33428;DHT22;19769;48.150;16.306;2023-06-22T02:14:13;22.60;99.90
33428;DHT22;19769;48.150;16.306;2023-06-22T02:16:39;22.60;99.90
33428;DHT22;19769;48.150;16.306;2023-06-22T02:19:05;22.50;99.90
33428;DHT22;19769;48.150;16.306;2023-06-22T02:21:33;22.50;99.90
33428;DHT22;19769;48.150;16.306;2023-06-22T02:23:59;22.50;99.90
33428;DHT22;19769;48.150;16.306;2023-06-22T02:26:25;22.40;99.90
33428;DHT22;19769;48.150;16.306;2023-06-22T02:28:53;22.40;99.90
33428;DHT22;19769;48.150;16.306;2023-06-22T02:31:18;22.40;99.90
33428;DHT22;19769;48.150;16.306;2023-06-22T02:33:45;22.40;99.90
33428;DHT22;19769;48.150;16.306;2023-06-22T02:36:11;22.40;99.90
33428;DHT22;19769;48.150;16.306;2023-06-22T02:38:41;22.30;99.90
33428;DHT22;19769;48.150;16.306;2023-06-22T02:41:14;22.30;99.90
33428;DHT22;19769;48.150;16.306;2023-06-22T02:43:46;22.20;99.90
33428;DHT22;19769;48.150;16.306;2023-06-22T02:46:12;22.20;99.90
33428;DHT22;19769;48.150;16.306;2023-06-22T02:48:40;22.20;99.90
33428;DHT22;19769;48.150;16.306;2023-06-22T02:51:06;22.20;99.90
33428;DHT22;19769;48.150;16.306;2023-06-22T02:53:33;22.20;99.90
33428;DHT22;19769;48.150;16.306;2023-06-22T02:56:00;22.20;99.90
33428;DHT22;19769;48.150;16.306;2023-06-22T02:58:28;22.20;99.90
33428;DHT22;19769;48.150;16.306;2023-06-22T03:00:54;22.10;99.90
33428;DHT22;19769;48.150;16.306;2023-06-22T03:03:20;22.10;99.90
33428;DHT22;19769;48.150;16.306;2023-06-22T03:05:46;22.10;99.90
33428;DHT22;19769;48.150;16.306;2023-06-22T03:08:12;22.10;99.90
33428;DHT22;19769;48.150;16.306;2023-06-22T03:10:38;22.10;99.90
33428;DHT22;19769;48.150;16.306;2023-06-22T03:13:03;22.10;99.90
33428;DHT22;19769;48.150;16.306;2023-06-22T03:15:30;22.10;99.90
33428;DHT22;19769;48.150;16.306;2023-06-22T03:17:57;22.20;99.90
33428;DHT22;19769;48.150;16.306;2023-06-22T03:20:23;22.10;99.90
33428;DHT22;19769;48.150;16.306;2023-06-22T03:22:48;22.10;99.90
33428;DHT22;19769;48.150;16.306;2023-06-22T03:25:14;22.10;99.90
33428;DHT22;19769;48.150;16.306;2023-06-22T03:27:43;22.10;99.90
33428;DHT22;19769;48.150;16.306;2023-06-22T03:30:10;22.10;99.90
33428;DHT22;19769;48.150;16.306;2023-06-22T03:32:36;22.10;99.90
33428;DHT22;19769;48.150;16.306;2023-06-22T03:35:04;22.10;99.90
33428;DHT22;19769;48.150;16.306;2023-06-22T03:37:32;22.10;99.90
33428;DHT22;19769;48.150;16.306;2023-06-22T03:39:59;22.10;99.90
33428;DHT22;19769;48.150;16.306;2023-06-22T03:42:25;22.10;99.90
33428;DHT22;19769;48.150;16.306;2023-06-22T03:44:51;22.10;99.90
33428;DHT22;19769;48.150;16.306;2023-06-22T03:47:17;22.20;99.90
33428;DHT22;19769;48.150;16.306;2023-06-22T03:49:42;22.20;99.90
33428;DHT22;19769;48.150;16.306;2023-06-22T03:52:08;22.30;99.90
33428;DHT22;19769;48.150;16.306;2023-06-22T03:54:34;22.40;99.90
33428;DHT22;19769;48.150;16.306;2023-06-22T03:57:00;22.40;99.90
33428;DHT22;19769;48.150;16.306;2023-06-22T03:59:26;22.40;99.90
33428;DHT22;19769;48.150;16.306;2023-06-22T04:01:51;22.40;99.90
33428;DHT22;19769;48.150;16.306;2023-06-22T04:04:17;22.40;99.90
33428;DHT22;19769;48.150;16.306;2023-06-22T04:06:43;22.50;99.90
33428;DHT22;19769;48.150;16.306;2023-06-22T04:09:09;22.50;99.90
33428;DHT22;19769;48.150;16.306;2023-06-22T04:11:34;22.60;99.90
33428;DHT22;19769;48.150;16.306;2023-06-22T04:14:00;22.60;99.90
33428;DHT22;19769;48.150;16.306;2023-06-22T04:16:26;22.70;99.90
33428;DHT22;19769;48.150;16.306;2023-06-22T04:18:52;22.70;99.90
33428;DHT22;19769;48.150;16.306;2023-06-22T04:21:18;22.70;99.90
33428;DHT22;19769;48.150;16.306;2023-06-22T04:23:45;22.80;99.90
33428;DHT22;19769;48.150;16.306;2023-06-22T04:26:12;22.80;99.90
33428;DHT22;19769;48.150;16.306;2023-06-22T04:28:37;22.80;99.90
33428;DHT22;19769;48.150;16.306;2023-06-22T04:31:03;22.90;99.90
33428;DHT22;19769;48.150;16.306;2023-06-22T04:33:31;23.00;99.90
33428;DHT22;19769;48.150;16.306;2023-06-22T04:35:57;23.10;99.90
33428;DHT22;19769;48.150;16.306;2023-06-22T04:38:23;23.20;99.90
33428;DHT22;19769;48.150;16.306;2023-06-22T04:40:49;23.20;99.90
33428;DHT22;19769;48.150;16.306;2023-06-22T04:43:15;23.20;99.90
33428;DHT22;19769;48.150;16.306;2023-06-22T04:45:41;23.10;99.90
33428;DHT22;19769;48.150;16.306;2023-06-22T04:48:07;23.00;99.90
33428;DHT22;19769;48.150;16.306;2023-06-22T04:50:36;23.10;99.90
33428;DHT22;19769;48.150;16.306;2023-06-22T04:53:03;23.10;99.90
33428;DHT22;19769;48.150;16.306;2023-06-22T04:55:34;23.10;99.90
33428;DHT22;19769;48.150;16.306;2023-06-22T04:57:59;23.20;99.90
33428;DHT22;19769;48.150;16.306;2023-06-22T05:00:31;23.20;99.90
33428;DHT22;19769;48.150;16.306;2023-06-22T05:02:57;23.30;99.90
33428;DHT22;19769;48.150;16.306;2023-06-22T05:05:23;23.30;99.90
33428;DHT22;19769;48.150;16.306;2023-06-22T05:07:49;23.40;99.90
33428;DHT22;19769;48.150;16.306;2023-06-22T05:10:19;23.50;99.90
33428;DHT22;19769;48.150;16.306;2023-06-22T05:12:45;23.60;99.90
33428;DHT22;19769;48.150;16.306;2023-06-22T05:15:11;23.60;99.90
33428;DHT22;19769;48.150;16.306;2023-06-22T05:17:37;23.70;99.90
33428;DHT22;19769;48.150;16.306;2023-06-22T05:20:23;23.80;99.90
33428;DHT22;19769;48.150;16.306;2023-06-22T05:22:49;23.90;99.90
33428;DHT22;19769;48.150;16.306;2023-06-22T05:25:15;24.00;99.90
33428;DHT22;19769;48.150;16.306;2023-06-22T05:27:40;24.10;99.90
33428;DHT22;19769;48.150;16.306;2023-06-22T05:30:06;24.20;99.90
33428;DHT22;19769;48.150;16.306;2023-06-22T05:32:32;24.30;99.90
33428;DHT22;19769;48.150;16.306;2023-06-22T05:34:59;24.40;99.90
33428;DHT22;19769;48.150;16.306;2023-06-22T05:37:24;24.50;99.90
33428;DHT22;19769;48.150;16.306;2023-06-22T05:39:50;24.60;99.90
33428;DHT22;19769;48.150;16.306;2023-06-22T05:42:16;24.70;99.90
33428;DHT22;19769;48.150;16.306;2023-06-22T05:44:42;24.70;99.90
33428;DHT22;19769;48.150;16.306;2023-06-22T05:47:08;24.80;99.90
33428;DHT22;19769;48.150;16.306;2023-06-22T05:49:34;24.90;99.90
33428;DHT22;19769;48.150;16.306;2023-06-22T05:52:00;25.00;99.90
33428;DHT22;19769;48.150;16.306;2023-06-22T05:54:29;25.10;99.90
33428;DHT22;19769;48.150;16.306;2023-06-22T05:56:54;25.20;99.90
33428;DHT22;19769;48.150;16.306;2023-06-22T05:59:20;25.20;99.90
33428;DHT22;19769;48.150;16.306;2023-06-22T06:01:46;25.30;99.90
33428;DHT22;19769;48.150;16.306;2023-06-22T06:04:16;25.40;99.90
33428;DHT22;19769;48.150;16.306;2023-06-22T06:06:41;25.40;99.90
33428;DHT22;19769;48.150;16.306;2023-06-22T06:09:07;25.50;99.90
33428;DHT22;19769;48.150;16.306;2023-06-22T06:11:33;25.60;99.90
33428;DHT22;19769;48.150;16.306;2023-06-22T06:13:59;25.60;99.90
33428;DHT22;19769;48.150;16.306;2023-06-22T06:16:24;25.70;99.90
33428;DHT22;19769;48.150;16.306;2023-06-22T06:18:50;25.80;99.90
33428;DHT22;19769;48.150;16.306;2023-06-22T06:21:16;25.80;99.90
33428;DHT22;19769;48.150;16.306;2023-06-22T06:23:42;25.90;99.90
33428;DHT22;19769;48.150;16.306;2023-06-22T06:26:08;26.00;99.90
33428;DHT22;19769;48.150;16.306;2023-06-22T06:28:34;26.00;99.90
33428;DHT22;19769;48.150;16.306;2023-06-22T06:31:00;26.00;99.90
33428;DHT22;19769;48.150;16.306;2023-06-22T06:33:26;26.00;99.90
33428;DHT22;19769;48.150;16.306;2023-06-22T06:35:52;26.10;99.90
33428;DHT22;19769;48.150;16.306;2023-06-22T06:38:17;26.20;99.90
33428;DHT22;19769;48.150;16.306;2023-06-22T06:40:43;26.20;99.90
33428;DHT22;19769;48.150;16.306;2023-06-22T06:43:10;26.30;99.90
33428;DHT22;19769;48.150;16.306;2023-06-22T06:45:36;26.30;99.90
33428;DHT22;19769;48.150;16.306;2023-06-22T06:48:02;26.40;99.90
33428;DHT22;19769;48.150;16.306;2023-06-22T06:50:28;26.50;99.90
33428;DHT22;19769;48.150;16.306;2023-06-22T06:52:53;26.50;99.90
33428;DHT22;19769;48.150;16.306;2023-06-22T06:55:19;26.60;99.90
33428;DHT22;19769;48.150;16.306;2023-06-22T06:57:46;26.70;99.90
33428;DHT22;19769;48.150;16.306;2023-06-22T07:00:13;26.70;99.90
33428;DHT22;19769;48.150;16.306;2023-06-22T07:02:44;26.90;99.90
33428;DHT22;19769;48.150;16.306;2023-06-22T07:05:10;27.00;99.90
33428;DHT22;19769;48.150;16.306;2023-06-22T07:07:36;27.00;99.90
33428;DHT22;19769;48.150;16.306;2023-06-22T07:10:02;27.10;99.90
33428;DHT22;19769;48.150;16.306;2023-06-22T07:12:28;27.20;99.90
33428;DHT22;19769;48.150;16.306;2023-06-22T07:14:57;27.20;99.90
33428;DHT22;19769;48.150;16.306;2023-06-22T07:17:26;27.30;99.90
33428;DHT22;19769;48.150;16.306;2023-06-22T07:19:51;27.40;99.90
33428;DHT22;19769;48.150;16.306;2023-06-22T07:22:17;27.50;99.90
33428;DHT22;19769;48.150;16.306;2023-06-22T07:24:43;27.50;99.90
33428;DHT22;19769;48.150;16.306;2023-06-22T07:27:08;27.60;99.90
33428;DHT22;19769;48.150;16.306;2023-06-22T07:29:36;27.60;99.90
33428;DHT22;19769;48.150;16.306;2023-06-22T07:32:03;27.60;99.90
33428;DHT22;19769;48.150;16.306;2023-06-22T07:34:30;27.70;99.90
33428;DHT22;19769;48.150;16.306;2023-06-22T07:36:56;27.80;99.90
33428;DHT22;19769;48.150;16.306;2023-06-22T07:39:21;27.90;99.90
33428;DHT22;19769;48.150;16.306;2023-06-22T07:41:51;28.10;99.90
33428;DHT22;19769;48.150;16.306;2023-06-22T07:44:17;28.30;99.90
33428;DHT22;19769;48.150;16.306;2023-06-22T07:46:43;28.40;99.90
33428;DHT22;19769;48.150;16.306;2023-06-22T07:49:09;28.60;99.90
33428;DHT22;19769;48.150;16.306;2023-06-22T07:51:34;28.60;99.90
33428;DHT22;19769;48.150;16.306;2023-06-22T07:54:00;28.70;99.90
33428;DHT22;19769;48.150;16.306;2023-06-22T07:56:26;28.80;99.90
33428;DHT22;19769;48.150;16.306;2023-06-22T07:58:52;28.90;99.90
33428;DHT22;19769;48.150;16.306;2023-06-22T08:01:18;28.90;99.90
33428;DHT22;19769;48.150;16.306;2023-06-22T08:03:49;28.90;99.90
33428;DHT22;19769;48.150;16.306;2023-06-22T08:06:15;29.00;99.90
33428;DHT22;19769;48.150;16.306;2023-06-22T08:08:41;29.10;99.90
33428;DHT22;19769;48.150;16.306;2023-06-22T08:11:08;29.20;99.90
33428;DHT22;19769;48.150;16.306;2023-06-22T08:13:34;29.30;99.90
33428;DHT22;19769;48.150;16.306;2023-06-22T08:16:00;29.40;99.90
33428;DHT22;19769;48.150;16.306;2023-06-22T08:18:26;29.50;99.90
33428;DHT22;19769;48.150;16.306;2023-06-22T08:20:51;29.50;99.90
33428;DHT22;19769;48.150;16.306;2023-06-22T08:23:17;29.60;99.90
33428;DHT22;19769;48.150;16.306;2023-06-22T08:25:43;29.70;99.90
33428;DHT22;19769;48.150;16.306;2023-06-22T08:28:09;29.70;99.90
33428;DHT22;19769;48.150;16.306;2023-06-22T08:30:35;29.80;99.90
33428;DHT22;19769;48.150;16.306;2023-06-22T08:33:00;29.80;99.90
33428;DHT22;19769;48.150;16.306;2023-06-22T08:35:26;30.90;99.90
33428;DHT22;19769;48.150;16.306;2023-06-22T08:37:52;30.00;99.90
33428;DHT22;19769;48.150;16.306;2023-06-22T08:40:22;29.90;99.90
33428;DHT22;19769;48.150;16.306;2023-06-22T08:42:48;30.00;99.90
33428;DHT22;19769;48.150;16.306;2023-06-22T08:45:14;30.10;99.90
33428;DHT22;19769;48.150;16.306;2023-06-22T08:47:40;30.10;99.90
33428;DHT22;19769;48.150;16.306;2023-06-22T08:50:07;30.10;99.90
33428;DHT22;19769;48.150;16.306;2023-06-22T08:52:34;30.30;99.90
33428;DHT22;19769;48.150;16.306;2023-06-22T08:54:59;30.40;99.90
33428;DHT22;19769;48.150;16.306;2023-06-22T08:57:25;30.50;99.90
33428;DHT22;19769;48.150;16.306;2023-06-22T08:59:51;30.70;99.80
33428;DHT22;19769;48.150;16.306;2023-06-22T09:02:18;30.60;99.10
33428;DHT22;19769;48.150;16.306;2023-06-22T09:04:47;30.60;98.80
33428;DHT22;19769;48.150;16.306;2023-06-22T09:07:14;30.60;98.30
33428;DHT22;19769;48.150;16.306;2023-06-22T09:09:40;30.70;98.50
33428;DHT22;19769;48.150;16.306;2023-06-22T09:12:08;30.80;99.70
33428;DHT22;19769;48.150;16.306;2023-06-22T09:14:35;30.90;98.50
33428;DHT22;19769;48.150;16.306;2023-06-22T09:17:01;31.00;98.00
33428;DHT22;19769;48.150;16.306;2023-06-22T09:19:27;31.10;96.00
33428;DHT22;19769;48.150;16.306;2023-06-22T09:21:52;31.20;95.40
33428;DHT22;19769;48.150;16.306;2023-06-22T09:24:18;31.30;96.50
33428;DHT22;19769;48.150;16.306;2023-06-22T09:26:44;31.40;95.30
33428;DHT22;19769;48.150;16.306;2023-06-22T09:29:10;31.50;94.20
33428;DHT22;19769;48.150;16.306;2023-06-22T09:31:35;31.50;93.70
33428;DHT22;19769;48.150;16.306;2023-06-22T09:34:01;31.40;92.80
33428;DHT22;19769;48.150;16.306;2023-06-22T09:36:27;31.40;92.00
33428;DHT22;19769;48.150;16.306;2023-06-22T09:38:53;31.50;92.30
33428;DHT22;19769;48.150;16.306;2023-06-22T09:41:21;31.60;92.40
33428;DHT22;19769;48.150;16.306;2023-06-22T09:43:47;31.70;92.10
33428;DHT22;19769;48.150;16.306;2023-06-22T09:46:15;31.70;92.30
33428;DHT22;19769;48.150;16.306;2023-06-22T09:48:40;31.80;92.20
33428;DHT22;19769;48.150;16.306;2023-06-22T09:51:06;31.80;92.00
33428;DHT22;19769;48.150;16.306;2023-06-22T09:53:32;31.80;91.30
33428;DHT22;19769;48.150;16.306;2023-06-22T09:56:00;31.80;91.30
33428;DHT22;19769;48.150;16.306;2023-06-22T09:58:26;31.80;90.20
33428;DHT22;19769;48.150;16.306;2023-06-22T10:00:52;31.80;90.40
33428;DHT22;19769;48.150;16.306;2023-06-22T10:03:18;31.80;90.60
33428;DHT22;19769;48.150;16.306;2023-06-22T10:05:44;31.90;90.70
33428;DHT22;19769;48.150;16.306;2023-06-22T10:08:09;32.00;89.90
33428;DHT22;19769;48.150;16.306;2023-06-22T10:10:35;32.20;88.90
33428;DHT22;19769;48.150;16.306;2023-06-22T10:13:10;32.30;89.10
33428;DHT22;19769;48.150;16.306;2023-06-22T10:15:37;32.30;89.10
33428;DHT22;19769;48.150;16.306;2023-06-22T10:18:03;32.30;90.10
33428;DHT22;19769;48.150;16.306;2023-06-22T10:20:28;32.50;91.60
33428;DHT22;19769;48.150;16.306;2023-06-22T10:22:56;32.60;89.80
33428;DHT22;19769;48.150;16.306;2023-06-22T10:25:22;32.80;87.10
33428;DHT22;19769;48.150;16.306;2023-06-22T10:27:47;32.80;86.60
33428;DHT22;19769;48.150;16.306;2023-06-22T10:30:13;32.90;84.10
33428;DHT22;19769;48.150;16.306;2023-06-22T10:32:39;33.00;82.70
33428;DHT22;19769;48.150;16.306;2023-06-22T10:35:05;33.00;80.20
33428;DHT22;19769;48.150;16.306;2023-06-22T10:37:31;33.00;78.90
33428;DHT22;19769;48.150;16.306;2023-06-22T10:39:57;32.90;80.00
33428;DHT22;19769;48.150;16.306;2023-06-22T10:42:22;33.00;79.80
33428;DHT22;19769;48.150;16.306;2023-06-22T10:44:48;33.10;79.50
33428;DHT22;19769;48.150;16.306;2023-06-22T10:47:14;33.20;78.40
33428;DHT22;19769;48.150;16.306;2023-06-22T10:49:39;33.20;77.40
33428;DHT22;19769;48.150;16.306;2023-06-22T10:52:08;33.30;77.60
33428;DHT22;19769;48.150;16.306;2023-06-22T10:54:34;33.40;77.40
33428;DHT22;19769;48.150;16.306;2023-06-22T10:57:01;33.40;77.00
33428;DHT22;19769;48.150;16.306;2023-06-22T10:59:26;33.40;77.50
33428;DHT22;19769;48.150;16.306;2023-06-22T11:01:55;33.50;77.70
33428;DHT22;19769;48.150;16.306;2023-06-22T11:04:21;33.30;77.10
33428;DHT22;19769;48.150;16.306;2023-06-22T11:06:47;33.40;77.70
33428;DHT22;19769;48.150;16.306;2023-06-22T11:09:13;33.60;78.20
33428;DHT22;19769;48.150;16.306;2023-06-22T11:11:47;33.60;78.60
33428;DHT22;19769;48.150;16.306;2023-06-22T11:14:16;33.60;76.80
33428;DHT22;19769;48.150;16.306;2023-06-22T11:16:42;33.60;78.00
33428;DHT22;19769;48.150;16.306;2023-06-22T11:19:08;35.20;78.10
33428;DHT22;19769;48.150;16.306;2023-06-22T11:21:34;33.60;76.30
33428;DHT22;19769;48.150;16.306;2023-06-22T11:24:02;33.50;76.40
33428;DHT22;19769;48.150;16.306;2023-06-22T11:26:30;33.30;76.00
33428;DHT22;19769;48.150;16.306;2023-06-22T11:28:57;33.30;76.90
33428;DHT22;19769;48.150;16.306;2023-06-22T11:31:23;33.40;76.40
33428;DHT22;19769;48.150;16.306;2023-06-22T11:33:49;33.50;75.20
33428;DHT22;19769;48.150;16.306;2023-06-22T11:36:18;32.70;74.70
33428;DHT22;19769;48.150;16.306;2023-06-22T11:38:51;33.70;77.60
33428;DHT22;19769;48.150;16.306;2023-06-22T11:41:17;33.80;76.90
33428;DHT22;19769;48.150;16.306;2023-06-22T11:43:43;33.90;76.00
33428;DHT22;19769;48.150;16.306;2023-06-22T11:46:09;34.00;74.20
33428;DHT22;19769;48.150;16.306;2023-06-22T11:48:35;34.00;74.00
33428;DHT22;19769;48.150;16.306;2023-06-22T11:51:02;33.80;72.80
33428;DHT22;19769;48.150;16.306;2023-06-22T11:53:28;33.90;74.90
33428;DHT22;19769;48.150;16.306;2023-06-22T11:55:54;33.90;73.30
33428;DHT22;19769;48.150;16.306;2023-06-22T11:58:21;33.90;71.90
33428;DHT22;19769;48.150;16.306;2023-06-22T12:00:47;33.90;72.30
33428;DHT22;19769;48.150;16.306;2023-06-22T12:03:13;33.90;73.00
33428;DHT22;19769;48.150;16.306;2023-06-22T12:05:40;34.10;73.60
33428;DHT22;19769;48.150;16.306;2023-06-22T12:08:06;34.10;73.80
33428;DHT22;19769;48.150;16.306;2023-06-22T12:10:31;33.90;71.50
33428;DHT22;19769;48.150;16.306;2023-06-22T12:12:57;33.70;74.30
33428;DHT22;19769;48.150;16.306;2023-06-22T12:15:25;33.70;72.90
33428;DHT22;19769;48.150;16.306;2023-06-22T12:17:53;33.70;72.70
33428;DHT22;19769;48.150;16.306;2023-06-22T12:20:19;33.90;71.70
33428;DHT22;19769;48.150;16.306;2023-06-22T12:22:45;34.00;71.50
33428;DHT22;19769;48.150;16.306;2023-06-22T12:25:11;34.10;71.50
33428;DHT22;19769;48.150;16.306;2023-06-22T12:27:37;34.10;69.60
33428;DHT22;19769;48.150;16.306;2023-06-22T12:30:03;34.10;70.10
33428;DHT22;19769;48.150;16.306;2023-06-22T12:32:30;34.10;70.70
33428;DHT22;19769;48.150;16.306;2023-06-22T12:34:55;34.20;69.80
33428;DHT22;19769;48.150;16.306;2023-06-22T12:37:22;34.10;69.60
33428;DHT22;19769;48.150;16.306;2023-06-22T12:39:48;34.00;69.60
33428;DHT22;19769;48.150;16.306;2023-06-22T12:42:14;33.90;71.90
33428;DHT22;19769;48.150;16.306;2023-06-22T12:44:40;33.70;70.60
33428;DHT22;19769;48.150;16.306;2023-06-22T12:47:06;33.70;70.50
33428;DHT22;19769;48.150;16.306;2023-06-22T12:49:34;33.70;70.70
33428;DHT22;19769;48.150;16.306;2023-06-22T12:51:59;33.80;71.10
33428;DHT22;19769;48.150;16.306;2023-06-22T12:54:25;33.80;70.50
33428;DHT22;19769;48.150;16.306;2023-06-22T12:56:51;33.80;69.90
33428;DHT22;19769;48.150;16.306;2023-06-22T12:59:17;33.70;69.50
33428;DHT22;19769;48.150;16.306;2023-06-22T13:01:43;33.60;70.00
33428;DHT22;19769;48.150;16.306;2023-06-22T13:04:12;33.70;71.10
33428;DHT22;19769;48.150;16.306;2023-06-22T13:06:40;33.70;70.40
33428;DHT22;19769;48.150;16.306;2023-06-22T13:09:06;33.60;71.90
33428;DHT22;19769;48.150;16.306;2023-06-22T13:11:32;33.70;70.40
33428;DHT22;19769;48.150;16.306;2023-06-22T13:13:58;33.60;71.00
33428;DHT22;19769;48.150;16.306;2023-06-22T13:16:23;33.60;71.10
33428;DHT22;19769;48.150;16.306;2023-06-22T13:18:49;33.60;71.90
33428;DHT22;19769;48.150;16.306;2023-06-22T13:21:15;33.60;71.30
33428;DHT22;19769;48.150;16.306;2023-06-22T13:23:41;33.50;71.40
33428;DHT22;19769;48.150;16.306;2023-06-22T13:26:07;33.50;71.40
33428;DHT22;19769;48.150;16.306;2023-06-22T13:28:33;33.60;71.90
33428;DHT22;19769;48.150;16.306;2023-06-22T13:30:59;33.40;71.40
33428;DHT22;19769;48.150;16.306;2023-06-22T13:33:25;33.60;70.60
33428;DHT22;19769;48.150;16.306;2023-06-22T13:35:51;33.60;71.50
33428;DHT22;19769;48.150;16.306;2023-06-22T13:38:16;33.70;71.50
33428;DHT22;19769;48.150;16.306;2023-06-22T13:40:43;33.60;71.50
33428;DHT22;19769;48.150;16.306;2023-06-22T13:43:09;33.60;73.00
33428;DHT22;19769;48.150;16.306;2023-06-22T13:45:34;33.80;72.40
33428;DHT22;19769;48.150;16.306;2023-06-22T13:48:00;33.70;71.40
33428;DHT22;19769;48.150;16.306;2023-06-22T13:50:26;33.60;72.00
33428;DHT22;19769;48.150;16.306;2023-06-22T13:52:52;33.50;72.50
33428;DHT22;19769;48.150;16.306;2023-06-22T13:55:18;33.50;72.90
33428;DHT22;19769;48.150;16.306;2023-06-22T13:57:46;33.40;73.50
33428;DHT22;19769;48.150;16.306;2023-06-22T14:00:12;33.30;74.10
33428;DHT22;19769;48.150;16.306;2023-06-22T14:02:38;33.30;75.00
33428;DHT22;19769;48.150;16.306;2023-06-22T14:05:05;33.20;73.70
33428;DHT22;19769;48.150;16.306;2023-06-22T14:07:34;33.10;74.30
33428;DHT22;19769;48.150;16.306;2023-06-22T14:10:00;33.00;75.00
33428;DHT22;19769;48.150;16.306;2023-06-22T14:12:26;32.60;75.40
33428;DHT22;19769;48.150;16.306;2023-06-22T14:14:52;32.90;75.50
33428;DHT22;19769;48.150;16.306;2023-06-22T14:17:18;32.80;76.50
33428;DHT22;19769;48.150;16.306;2023-06-22T14:19:49;32.80;75.80
33428;DHT22;19769;48.150;16.306;2023-06-22T14:22:15;32.80;77.40
33428;DHT22;19769;48.150;16.306;2023-06-22T14:24:52;32.90;76.40
33428;DHT22;19769;48.150;16.306;2023-06-22T14:38:29;33.70;77.50
33428;DHT22;19769;48.150;16.306;2023-06-22T14:52:17;32.40;78.40
33428;DHT22;19769;48.150;16.306;2023-06-22T14:54:43;32.30;79.30
33428;DHT22;19769;48.150;16.306;2023-06-22T14:57:09;32.20;80.20
33428;DHT22;19769;48.150;16.306;2023-06-22T14:59:38;32.10;81.30
33428;DHT22;19769;48.150;16.306;2023-06-22T15:02:03;32.10;81.20
33428;DHT22;19769;48.150;16.306;2023-06-22T15:04:29;32.10;81.10
33428;DHT22;19769;48.150;16.306;2023-06-22T15:07:00;32.10;81.10
33428;DHT22;19769;48.150;16.306;2023-06-22T15:09:26;32.10;81.00
33428;DHT22;19769;48.150;16.306;2023-06-22T15:14:39;32.10;81.60
33428;DHT22;19769;48.150;16.306;2023-06-22T15:17:05;32.20;81.00
33428;DHT22;19769;48.150;16.306;2023-06-22T15:19:37;32.30;82.10
33428;DHT22;19769;48.150;16.306;2023-06-22T15:22:10;32.30;81.70
33428;DHT22;19769;48.150;16.306;2023-06-22T15:28:25;30.60;80.80
33428;DHT22;19769;48.150;16.306;2023-06-22T15:30:51;32.30;81.80
33428;DHT22;19769;48.150;16.306;2023-06-22T15:33:17;32.30;82.30
33428;DHT22;19769;48.150;16.306;2023-06-22T15:35:43;32.20;82.60
33428;DHT22;19769;48.150;16.306;2023-06-22T15:38:09;32.20;83.10
33428;DHT22;19769;48.150;16.306;2023-06-22T15:40:34;32.20;83.40
33428;DHT22;19769;48.150;16.306;2023-06-22T15:43:01;32.00;83.00
33428;DHT22;19769;48.150;16.306;2023-06-22T15:45:28;31.90;83.60
33428;DHT22;19769;48.150;16.306;2023-06-22T15:47:53;31.90;84.50
33428;DHT22;19769;48.150;16.306;2023-06-22T15:50:19;31.70;85.20
33428;DHT22;19769;48.150;16.306;2023-06-22T15:52:46;31.80;85.60